sensor_id;sensor_type;location;lat;lon;timestamp;temperature;humidity
48019;DHT22;33786;48.690;9.562;2023-08-01T00:00:58;18.30;99.90
48019;DHT22;33786;48.690;9.562;2023-08-01T00:03:25;18.30;99.90
48019;DHT22;33786;48.690;9.562;2023-08-01T00:05:52;18.30;99.90
48019;DHT22;33786;48.690;9.562;2023-08-01T00:08:21;18.30;99.90
48019;DHT22;33786;48.690;9.562;2023-08-01T00:10:48;18.30;99.90
48019;DHT22;33786;48.690;9.562;2023-08-01T00:13:14;18.30;99.90
48019;DHT22;33786;48.690;9.562;2023-08-01T00:15:41;18.30;99.90
48019;DHT22;33786;48.690;9.562;2023-08-01T00:18:19;18.20;99.90
48019;DHT22;33786;48.690;9.562;2023-08-01T00:20:46;18.20;99.90
48019;DHT22;33786;48.690;9.562;2023-08-01T00:23:13;18.10;99.90
48019;DHT22;33786;48.690;9.562;2023-08-01T00:25:39;18.20;99.90
48019;DHT22;33786;48.690;9.562;2023-08-01T00:28:06;18.00;99.90
48019;DHT22;33786;48.690;9.562;2023-08-01T00:30:33;18.00;99.90
48019;DHT22;33786;48.690;9.562;2023-08-01T00:33:00;17.90;99.90
48019;DHT22;33786;48.690;9.562;2023-08-01T00:35:26;17.90;99.90
48019;DHT22;33786;48.690;9.562;2023-08-01T00:37:53;17.90;99.90
48019;DHT22;33786;48.690;9.562;2023-08-01T00:40:20;18.00;99.90
48019;DHT22;33786;48.690;9.562;2023-08-01T00:42:47;17.90;99.90
48019;DHT22;33786;48.690;9.562;2023-08-01T00:45:15;17.90;99.90
48019;DHT22;33786;48.690;9.562;2023-08-01T00:47:41;17.80;99.90
48019;DHT22;33786;48.690;9.562;2023-08-01T00:50:08;17.80;99.90
48019;DHT22;33786;48.690;9.562;2023-08-01T00:52:35;17.80;99.90
48019;DHT22;33786;48.690;9.562;2023-08-01T00:55:02;17.80;99.90
48019;DHT22;33786;48.690;9.562;2023-08-01T00:57:29;17.80;99.90
48019;DHT22;33786;48.690;9.562;2023-08-01T00:59:56;17.70;99.90
48019;DHT22;33786;48.690;9.562;2023-08-01T01:02:23;17.70;99.90
48019;DHT22;33786;48.690;9.562;2023-08-01T01:04:49;17.60;99.90
48019;DHT22;33786;48.690;9.562;2023-08-01T01:07:16;17.50;99.90
48019;DHT22;33786;48.690;9.562;2023-08-01T01:09:43;17.60;99.90
48019;DHT22;33786;48.690;9.562;2023-08-01T01:12:10;17.60;99.90
48019;DHT22;33786;48.690;9.562;2023-08-01T01:14:37;17.60;99.90
48019;DHT22;33786;48.690;9.562;2023-08-01T01:17:04;17.60;99.90
48019;DHT22;33786;48.690;9.562;2023-08-01T01:19:31;17.60;99.90
48019;DHT22;33786;48.690;9.562;2023-08-01T01:21:58;17.70;99.90
48019;DHT22;33786;48.690;9.562;2023-08-01T01:24:25;17.60;99.90
48019;DHT22;33786;48.690;9.562;2023-08-01T01:26:52;17.60;99.90
48019;DHT22;33786;48.690;9.562;2023-08-01T01:29:20;17.60;99.90
48019;DHT22;33786;48.690;9.562;2023-08-01T01:31:48;17.50;99.90
48019;DHT22;33786;48.690;9.562;2023-08-01T01:34:15;17.50;99.90
48019;DHT22;33786;48.690;9.562;2023-08-01T01:36:41;17.50;99.90
48019;DHT22;33786;48.690;9.562;2023-08-01T01:39:08;17.50;99.90
48019;DHT22;33786;48.690;9.562;2023-08-01T01:41:35;17.50;99.90
48019;DHT22;33786;48.690;9.562;2023-08-01T01:44:02;17.40;99.90
48019;DHT22;33786;48.690;9.562;2023-08-01T01:46:28;17.50;99.90
48019;DHT22;33786;48.690;9.562;2023-08-01T01:48:55;17.50;99.90
48019;DHT22;33786;48.690;9.562;2023-08-01T01:51:27;17.60;99.90
48019;DHT22;33786;48.690;9.562;2023-08-01T01:53:54;17.60;99.90
48019;DHT22;33786;48.690;9.562;2023-08-01T01:56:21;17.60;99.90
48019;DHT22;33786;48.690;9.562;2023-08-01T01:58:48;17.60;99.90
48019;DHT22;33786;48.690;9.562;2023-08-01T02:01:14;17.60;99.90
48019;DHT22;33786;48.690;9.562;2023-08-01T02:03:41;17.60;99.90
48019;DHT22;33786;48.690;9.562;2023-08-01T02:06:08;17.60;99.90
48019;DHT22;33786;48.690;9.562;2023-08-01T02:08:35;17.60;99.90
48019;DHT22;33786;48.690;9.562;2023-08-01T02:11:01;17.60;99.90
48019;DHT22;33786;48.690;9.562;2023-08-01T02:13:29;17.50;99.90
48019;DHT22;33786;48.690;9.562;2023-08-01T02:15:58;17.50;99.90
48019;DHT22;33786;48.690;9.562;2023-08-01T02:18:25;17.50;99.90
48019;DHT22;33786;48.690;9.562;2023-08-01T02:20:52;17.50;99.90
48019;DHT22;33786;48.690;9.562;2023-08-01T02:23:18;17.50;99.90
48019;DHT22;33786;48.690;9.562;2023-08-01T02:25:45;17.60;99.90
48019;DHT22;33786;48.690;9.562;2023-08-01T02:28:12;17.60;99.90
48019;DHT22;33786;48.690;9.562;2023-08-01T02:30:39;17.60;99.90
48019;DHT22;33786;48.690;9.562;2023-08-01T02:33:06;17.50;99.90
48019;DHT22;33786;48.690;9.562;2023-08-01T02:35:32;17.50;99.90
48019;DHT22;33786;48.690;9.562;2023-08-01T02:37:59;17.50;99.90
48019;DHT22;33786;48.690;9.562;2023-08-01T02:40:26;17.50;99.90
48019;DHT22;33786;48.690;9.562;2023-08-01T02:42:53;17.50;99.90
48019;DHT22;33786;48.690;9.562;2023-08-01T02:45:20;17.50;99.90
48019;DHT22;33786;48.690;9.562;2023-08-01T02:47:46;17.50;99.90
48019;DHT22;33786;48.690;9.562;2023-08-01T02:50:13;17.60;99.90
48019;DHT22;33786;48.690;9.562;2023-08-01T02:52:40;17.60;99.90
48019;DHT22;33786;48.690;9.562;2023-08-01T02:55:07;17.70;99.90
48019;DHT22;33786;48.690;9.562;2023-08-01T02:57:34;17.70;99.90
48019;DHT22;33786;48.690;9.562;2023-08-01T03:00:00;17.80;99.90
48019;DHT22;33786;48.690;9.562;2023-08-01T03:02:31;17.80;99.90
48019;DHT22;33786;48.690;9.562;2023-08-01T03:04:58;17.90;99.90
48019;DHT22;33786;48.690;9.562;2023-08-01T03:07:25;18.00;99.90
48019;DHT22;33786;48.690;9.562;2023-08-01T03:09:52;18.00;99.90
48019;DHT22;33786;48.690;9.562;2023-08-01T03:12:18;18.00;99.90
48019;DHT22;33786;48.690;9.562;2023-08-01T03:14:45;17.80;99.90
48019;DHT22;33786;48.690;9.562;2023-08-01T03:17:14;17.80;99.90
48019;DHT22;33786;48.690;9.562;2023-08-01T03:19:40;17.80;99.90
48019;DHT22;33786;48.690;9.562;2023-08-01T03:22:07;17.90;99.90
48019;DHT22;33786;48.690;9.562;2023-08-01T03:24:34;17.90;99.90
48019;DHT22;33786;48.690;9.562;2023-08-01T03:27:01;17.90;99.90
48019;DHT22;33786;48.690;9.562;2023-08-01T03:29:28;17.90;99.90
48019;DHT22;33786;48.690;9.562;2023-08-01T03:31:54;17.90;99.90
48019;DHT22;33786;48.690;9.562;2023-08-01T03:34:21;17.90;99.90
48019;DHT22;33786;48.690;9.562;2023-08-01T03:36:48;17.90;99.90
48019;DHT22;33786;48.690;9.562;2023-08-01T03:39:15;17.90;99.90
48019;DHT22;33786;48.690;9.562;2023-08-01T03:41:42;17.90;99.90
48019;DHT22;33786;48.690;9.562;2023-08-01T03:44:08;18.00;99.90
48019;DHT22;33786;48.690;9.562;2023-08-01T03:46:35;18.00;99.90
48019;DHT22;33786;48.690;9.562;2023-08-01T03:49:02;18.10;99.90
48019;DHT22;33786;48.690;9.562;2023-08-01T03:51:29;18.20;99.90
48019;DHT22;33786;48.690;9.562;2023-08-01T03:53:55;18.30;99.90
48019;DHT22;33786;48.690;9.562;2023-08-01T03:56:39;18.40;99.90
48019;DHT22;33786;48.690;9.562;2023-08-01T03:59:15;18.50;99.90
48019;DHT22;33786;48.690;9.562;2023-08-01T04:01:42;18.50;99.90
48019;DHT22;33786;48.690;9.562;2023-08-01T04:04:09;18.60;99.90
48019;DHT22;33786;48.690;9.562;2023-08-01T04:06:36;18.80;99.90
48019;DHT22;33786;48.690;9.562;2023-08-01T04:09:10;18.90;99.90
48019;DHT22;33786;48.690;9.562;2023-08-01T04:11:37;18.90;99.90
48019;DHT22;33786;48.690;9.562;2023-08-01T04:14:03;18.80;99.90
48019;DHT22;33786;48.690;9.562;2023-08-01T04:16:30;18.90;99.90
48019;DHT22;33786;48.690;9.562;2023-08-01T04:18:57;18.90;99.90
48019;DHT22;33786;48.690;9.562;2023-08-01T04:21:24;18.80;99.90
48019;DHT22;33786;48.690;9.562;2023-08-01T04:23:50;18.70;99.90
48019;DHT22;33786;48.690;9.562;2023-08-01T04:26:17;18.70;99.90
48019;DHT22;33786;48.690;9.562;2023-08-01T04:28:45;18.70;99.90
48019;DHT22;33786;48.690;9.562;2023-08-01T04:31:12;18.70;99.90
48019;DHT22;33786;48.690;9.562;2023-08-01T04:33:38;18.60;99.90
48019;DHT22;33786;48.690;9.562;2023-08-01T04:36:05;18.70;99.90
48019;DHT22;33786;48.690;9.562;2023-08-01T04:38:32;18.60;99.90
48019;DHT22;33786;48.690;9.562;2023-08-01T04:40:59;18.70;99.90
48019;DHT22;33786;48.690;9.562;2023-08-01T04:43:26;18.70;99.90
48019;DHT22;33786;48.690;9.562;2023-08-01T04:45:53;18.80;99.90
48019;DHT22;33786;48.690;9.562;2023-08-01T04:48:20;18.80;99.90
48019;DHT22;33786;48.690;9.562;2023-08-01T04:50:47;18.90;99.90
48019;DHT22;33786;48.690;9.562;2023-08-01T04:53:13;19.10;99.90
48019;DHT22;33786;48.690;9.562;2023-08-01T04:55:40;19.10;99.90
48019;DHT22;33786;48.690;9.562;2023-08-01T04:58:07;19.10;99.90
48019;DHT22;33786;48.690;9.562;2023-08-01T05:00:37;19.20;99.90
48019;DHT22;33786;48.690;9.562;2023-08-01T05:03:04;19.20;99.90
48019;DHT22;33786;48.690;9.562;2023-08-01T05:05:31;19.40;99.90
48019;DHT22;33786;48.690;9.562;2023-08-01T05:07:57;19.40;99.90
48019;DHT22;33786;48.690;9.562;2023-08-01T05:10:24;19.40;99.90
48019;DHT22;33786;48.690;9.562;2023-08-01T05:12:51;19.40;99.90
48019;DHT22;33786;48.690;9.562;2023-08-01T05:15:18;19.90;99.90
48019;DHT22;33786;48.690;9.562;2023-08-01T05:17:44;19.50;99.90
48019;DHT22;33786;48.690;9.562;2023-08-01T05:20:11;19.60;99.90
48019;DHT22;33786;48.690;9.562;2023-08-01T05:22:38;19.60;99.90
48019;DHT22;33786;48.690;9.562;2023-08-01T05:25:05;19.70;99.90
48019;DHT22;33786;48.690;9.562;2023-08-01T05:27:32;19.70;99.90
48019;DHT22;33786;48.690;9.562;2023-08-01T05:30:00;19.70;99.90
48019;DHT22;33786;48.690;9.562;2023-08-01T05:32:27;19.70;99.90
48019;DHT22;33786;48.690;9.562;2023-08-01T05:34:53;19.70;99.90
48019;DHT22;33786;48.690;9.562;2023-08-01T05:37:20;19.80;99.90
48019;DHT22;33786;48.690;9.562;2023-08-01T05:39:47;19.90;99.90
48019;DHT22;33786;48.690;9.562;2023-08-01T05:42:14;19.90;99.90
48019;DHT22;33786;48.690;9.562;2023-08-01T05:44:40;20.00;99.90
48019;DHT22;33786;48.690;9.562;2023-08-01T05:47:07;20.10;99.90
48019;DHT22;33786;48.690;9.562;2023-08-01T05:49:34;20.10;99.90
48019;DHT22;33786;48.690;9.562;2023-08-01T05:52:01;20.10;99.90
48019;DHT22;33786;48.690;9.562;2023-08-01T05:54:27;20.10;99.90
48019;DHT22;33786;48.690;9.562;2023-08-01T05:56:54;20.00;99.90
48019;DHT22;33786;48.690;9.562;2023-08-01T05:59:21;20.10;99.90
48019;DHT22;33786;48.690;9.562;2023-08-01T06:01:48;20.10;99.90
48019;DHT22;33786;48.690;9.562;2023-08-01T06:04:15;20.10;99.90
48019;DHT22;33786;48.690;9.562;2023-08-01T06:06:41;20.10;99.90
48019;DHT22;33786;48.690;9.562;2023-08-01T06:09:09;20.20;99.90
48019;DHT22;33786;48.690;9.562;2023-08-01T06:11:35;20.20;99.90
48019;DHT22;33786;48.690;9.562;2023-08-01T06:14:03;20.10;99.90
48019;DHT22;33786;48.690;9.562;2023-08-01T06:16:30;20.00;99.90
48019;DHT22;33786;48.690;9.562;2023-08-01T06:18:57;20.00;99.90
48019;DHT22;33786;48.690;9.562;2023-08-01T06:21:24;20.00;99.90
48019;DHT22;33786;48.690;9.562;2023-08-01T06:23:51;20.00;99.90
48019;DHT22;33786;48.690;9.562;2023-08-01T06:26:17;20.00;99.90
48019;DHT22;33786;48.690;9.562;2023-08-01T06:28:44;20.00;99.90
48019;DHT22;33786;48.690;9.562;2023-08-01T06:31:11;19.90;99.90
48019;DHT22;33786;48.690;9.562;2023-08-01T06:33:37;19.80;99.90
48019;DHT22;33786;48.690;9.562;2023-08-01T06:36:05;19.80;99.90
48019;DHT22;33786;48.690;9.562;2023-08-01T06:38:31;19.90;99.90
48019;DHT22;33786;48.690;9.562;2023-08-01T06:40:58;19.90;99.90
48019;DHT22;33786;48.690;9.562;2023-08-01T06:43:25;19.90;99.90
48019;DHT22;33786;48.690;9.562;2023-08-01T06:45:52;19.80;99.90
48019;DHT22;33786;48.690;9.562;2023-08-01T06:48:19;19.80;99.90
48019;DHT22;33786;48.690;9.562;2023-08-01T06:50:45;19.70;99.90
48019;DHT22;33786;48.690;9.562;2023-08-01T06:53:12;19.60;99.90
48019;DHT22;33786;48.690;9.562;2023-08-01T06:55:39;19.40;99.90
48019;DHT22;33786;48.690;9.562;2023-08-01T06:58:05;19.40;99.90
48019;DHT22;33786;48.690;9.562;2023-08-01T07:00:32;19.40;99.90
48019;DHT22;33786;48.690;9.562;2023-08-01T07:02:59;19.40;99.90
48019;DHT22;33786;48.690;9.562;2023-08-01T07:05:26;19.30;99.90
48019;DHT22;33786;48.690;9.562;2023-08-01T07:07:53;19.30;99.90
48019;DHT22;33786;48.690;9.562;2023-08-01T07:10:19;19.30;99.90
48019;DHT22;33786;48.690;9.562;2023-08-01T07:12:46;19.20;99.90
48019;DHT22;33786;48.690;9.562;2023-08-01T07:15:14;19.20;99.90
48019;DHT22;33786;48.690;9.562;2023-08-01T07:17:40;19.20;99.90
48019;DHT22;33786;48.690;9.562;2023-08-01T07:20:07;19.20;99.90
48019;DHT22;33786;48.690;9.562;2023-08-01T07:22:34;19.20;99.90
48019;DHT22;33786;48.690;9.562;2023-08-01T07:25:01;19.00;99.90
48019;DHT22;33786;48.690;9.562;2023-08-01T07:27:28;18.90;99.90
48019;DHT22;33786;48.690;9.562;2023-08-01T07:29:54;18.90;99.90
48019;DHT22;33786;48.690;9.562;2023-08-01T07:32:21;19.00;99.90
48019;DHT22;33786;48.690;9.562;2023-08-01T07:34:48;19.00;99.90
48019;DHT22;33786;48.690;9.562;2023-08-01T07:37:15;19.00;99.90
48019;DHT22;33786;48.690;9.562;2023-08-01T07:39:41;19.00;99.90
48019;DHT22;33786;48.690;9.562;2023-08-01T07:42:08;18.90;99.90
48019;DHT22;33786;48.690;9.562;2023-08-01T07:44:35;18.90;99.90
48019;DHT22;33786;48.690;9.562;2023-08-01T07:47:02;18.80;99.90
48019;DHT22;33786;48.690;9.562;2023-08-01T07:49:29;18.80;99.90
48019;DHT22;33786;48.690;9.562;2023-08-01T07:51:55;18.80;99.90
48019;DHT22;33786;48.690;9.562;2023-08-01T07:54:23;18.90;99.90
48019;DHT22;33786;48.690;9.562;2023-08-01T07:56:50;18.90;99.90
48019;DHT22;33786;48.690;9.562;2023-08-01T07:59:17;18.90;99.90
48019;DHT22;33786;48.690;9.562;2023-08-01T08:01:43;19.00;99.90
48019;DHT22;33786;48.690;9.562;2023-08-01T08:04:10;19.00;99.90
48019;DHT22;33786;48.690;9.562;2023-08-01T08:06:37;19.00;99.90
48019;DHT22;33786;48.690;9.562;2023-08-01T08:09:04;18.90;99.90
48019;DHT22;33786;48.690;9.562;2023-08-01T08:11:31;18.90;99.90
48019;DHT22;33786;48.690;9.562;2023-08-01T08:13:58;18.70;99.90
48019;DHT22;33786;48.690;9.562;2023-08-01T08:16:25;18.50;99.90
48019;DHT22;33786;48.690;9.562;2023-08-01T08:18:52;18.30;99.90
48019;DHT22;33786;48.690;9.562;2023-08-01T08:21:18;18.10;99.90
48019;DHT22;33786;48.690;9.562;2023-08-01T08:23:45;18.00;99.90
48019;DHT22;33786;48.690;9.562;2023-08-01T08:26:12;17.80;99.90
48019;DHT22;33786;48.690;9.562;2023-08-01T08:28:38;17.70;99.90
48019;DHT22;33786;48.690;9.562;2023-08-01T08:31:06;17.80;99.90
48019;DHT22;33786;48.690;9.562;2023-08-01T08:33:33;17.80;99.90
48019;DHT22;33786;48.690;9.562;2023-08-01T08:36:00;17.70;99.90
48019;DHT22;33786;48.690;9.562;2023-08-01T08:38:27;17.80;99.90
48019;DHT22;33786;48.690;9.562;2023-08-01T08:43:23;17.80;99.90
48019;DHT22;33786;48.690;9.562;2023-08-01T08:45:50;17.90;99.90
48019;DHT22;33786;48.690;9.562;2023-08-01T08:48:19;18.00;99.90
48019;DHT22;33786;48.690;9.562;2023-08-01T08:50:46;17.90;99.90
48019;DHT22;33786;48.690;9.562;2023-08-01T08:53:13;17.90;99.90
48019;DHT22;33786;48.690;9.562;2023-08-01T08:55:40;17.90;99.90
48019;DHT22;33786;48.690;9.562;2023-08-01T08:58:07;18.00;99.90
48019;DHT22;33786;48.690;9.562;2023-08-01T09:00:35;18.00;99.90
48019;DHT22;33786;48.690;9.562;2023-08-01T09:03:04;18.00;99.90
48019;DHT22;33786;48.690;9.562;2023-08-01T09:05:31;18.20;99.90
48019;DHT22;33786;48.690;9.562;2023-08-01T09:08:01;18.30;99.90
48019;DHT22;33786;48.690;9.562;2023-08-01T09:10:31;18.40;99.90
48019;DHT22;33786;48.690;9.562;2023-08-01T09:12:58;18.50;99.90
48019;DHT22;33786;48.690;9.562;2023-08-01T09:15:25;18.50;99.90
48019;DHT22;33786;48.690;9.562;2023-08-01T09:17:54;18.70;99.90
48019;DHT22;33786;48.690;9.562;2023-08-01T09:20:23;18.80;99.90
48019;DHT22;33786;48.690;9.562;2023-08-01T09:22:49;19.00;99.90
48019;DHT22;33786;48.690;9.562;2023-08-01T09:25:16;19.00;99.90
48019;DHT22;33786;48.690;9.562;2023-08-01T09:27:43;19.10;99.90
48019;DHT22;33786;48.690;9.562;2023-08-01T09:30:10;19.20;99.90
48019;DHT22;33786;48.690;9.562;2023-08-01T09:32:39;19.40;99.90
48019;DHT22;33786;48.690;9.562;2023-08-01T09:35:06;19.40;99.90
48019;DHT22;33786;48.690;9.562;2023-08-01T09:37:42;19.50;99.90
48019;DHT22;33786;48.690;9.562;2023-08-01T09:40:09;19.30;99.90
48019;DHT22;33786;48.690;9.562;2023-08-01T09:45:16;19.00;99.90
48019;DHT22;33786;48.690;9.562;2023-08-01T09:47:43;19.10;99.90
48019;DHT22;33786;48.690;9.562;2023-08-01T09:50:19;19.00;99.90
48019;DHT22;33786;48.690;9.562;2023-08-01T09:52:46;19.20;99.90
48019;DHT22;33786;48.690;9.562;2023-08-01T09:55:25;19.20;99.90
48019;DHT22;33786;48.690;9.562;2023-08-01T09:57:53;19.10;99.90
48019;DHT22;33786;48.690;9.562;2023-08-01T10:00:27;19.20;99.90
48019;DHT22;33786;48.690;9.562;2023-08-01T10:02:57;19.20;99.90
48019;DHT22;33786;48.690;9.562;2023-08-01T10:05:31;19.20;99.90
48019;DHT22;33786;48.690;9.562;2023-08-01T10:07:59;19.20;99.90
48019;DHT22;33786;48.690;9.562;2023-08-01T10:10:27;19.40;99.90
48019;DHT22;33786;48.690;9.562;2023-08-01T10:12:54;19.20;99.90
48019;DHT22;33786;48.690;9.562;2023-08-01T10:15:25;19.20;99.90
48019;DHT22;33786;48.690;9.562;2023-08-01T10:17:52;19.10;99.90
48019;DHT22;33786;48.690;9.562;2023-08-01T10:20:20;19.00;99.90
48019;DHT22;33786;48.690;9.562;2023-08-01T10:22:48;19.00;99.90
48019;DHT22;33786;48.690;9.562;2023-08-01T10:25:16;19.00;99.90
48019;DHT22;33786;48.690;9.562;2023-08-01T10:27:45;18.90;99.90
48019;DHT22;33786;48.690;9.562;2023-08-01T10:30:12;19.00;99.90
48019;DHT22;33786;48.690;9.562;2023-08-01T10:32:39;19.20;99.90
48019;DHT22;33786;48.690;9.562;2023-08-01T10:35:06;19.40;99.90
48019;DHT22;33786;48.690;9.562;2023-08-01T10:37:42;19.40;99.90
48019;DHT22;33786;48.690;9.562;2023-08-01T10:40:09;19.30;99.90
48019;DHT22;33786;48.690;9.562;2023-08-01T10:42:43;19.40;99.90
48019;DHT22;33786;48.690;9.562;2023-08-01T10:45:23;19.30;99.90
48019;DHT22;33786;48.690;9.562;2023-08-01T10:47:52;19.30;99.90
48019;DHT22;33786;48.690;9.562;2023-08-01T10:50:19;19.40;99.90
48019;DHT22;33786;48.690;9.562;2023-08-01T10:52:45;19.60;99.90
48019;DHT22;33786;48.690;9.562;2023-08-01T10:55:15;19.50;99.90
48019;DHT22;33786;48.690;9.562;2023-08-01T10:57:47;19.60;99.90
48019;DHT22;33786;48.690;9.562;2023-08-01T11:00:15;19.80;99.90
48019;DHT22;33786;48.690;9.562;2023-08-01T11:02:48;20.00;99.90
48019;DHT22;33786;48.690;9.562;2023-08-01T11:05:15;20.30;99.90
48019;DHT22;33786;48.690;9.562;2023-08-01T11:07:42;20.80;99.90
48019;DHT22;33786;48.690;9.562;2023-08-01T11:10:19;21.40;99.90
48019;DHT22;33786;48.690;9.562;2023-08-01T11:12:46;21.50;99.90
48019;DHT22;33786;48.690;9.562;2023-08-01T11:15:13;21.50;99.90
48019;DHT22;33786;48.690;9.562;2023-08-01T11:17:40;21.80;99.90
48019;DHT22;33786;48.690;9.562;2023-08-01T11:20:08;22.30;99.90
48019;DHT22;33786;48.690;9.562;2023-08-01T11:22:36;22.60;99.90
48019;DHT22;33786;48.690;9.562;2023-08-01T11:25:03;22.70;99.90
48019;DHT22;33786;48.690;9.562;2023-08-01T11:27:30;22.70;99.90
48019;DHT22;33786;48.690;9.562;2023-08-01T11:29:57;22.80;99.90
48019;DHT22;33786;48.690;9.562;2023-08-01T11:32:33;22.70;99.90
48019;DHT22;33786;48.690;9.562;2023-08-01T11:35:01;22.50;99.90
48019;DHT22;33786;48.690;9.562;2023-08-01T11:37:28;22.80;99.90
48019;DHT22;33786;48.690;9.562;2023-08-01T11:39:54;22.90;99.90
48019;DHT22;33786;48.690;9.562;2023-08-01T11:42:22;23.10;99.90
48019;DHT22;33786;48.690;9.562;2023-08-01T11:44:48;23.20;99.90
48019;DHT22;33786;48.690;9.562;2023-08-01T11:47:15;23.40;99.90
48019;DHT22;33786;48.690;9.562;2023-08-01T11:49:46;23.20;99.90
48019;DHT22;33786;48.690;9.562;2023-08-01T11:52:26;22.70;99.90
48019;DHT22;33786;48.690;9.562;2023-08-01T11:54:53;22.60;99.90
48019;DHT22;33786;48.690;9.562;2023-08-01T11:57:21;22.50;99.90
48019;DHT22;33786;48.690;9.562;2023-08-01T11:59:49;22.10;99.90
48019;DHT22;33786;48.690;9.562;2023-08-01T12:04:49;22.60;99.90
48019;DHT22;33786;48.690;9.562;2023-08-01T12:07:16;23.10;99.90
48019;DHT22;33786;48.690;9.562;2023-08-01T12:09:59;22.80;99.90
48019;DHT22;33786;48.690;9.562;2023-08-01T12:12:27;22.70;99.90
48019;DHT22;33786;48.690;9.562;2023-08-01T12:14:54;22.70;99.60
48019;DHT22;33786;48.690;9.562;2023-08-01T12:17:22;22.90;98.40
48019;DHT22;33786;48.690;9.562;2023-08-01T12:19:49;22.80;97.20
48019;DHT22;33786;48.690;9.562;2023-08-01T12:22:16;22.80;97.40
48019;DHT22;33786;48.690;9.562;2023-08-01T12:24:43;22.70;97.10
48019;DHT22;33786;48.690;9.562;2023-08-01T12:27:10;22.70;97.70
48019;DHT22;33786;48.690;9.562;2023-08-01T12:29:37;22.60;97.20
48019;DHT22;33786;48.690;9.562;2023-08-01T12:32:04;22.80;96.90
48019;DHT22;33786;48.690;9.562;2023-08-01T12:34:31;22.70;96.00
48019;DHT22;33786;48.690;9.562;2023-08-01T12:36:57;22.70;96.00
48019;DHT22;33786;48.690;9.562;2023-08-01T12:39:24;22.90;95.50
48019;DHT22;33786;48.690;9.562;2023-08-01T12:41:53;23.00;95.10
48019;DHT22;33786;48.690;9.562;2023-08-01T12:44:20;23.10;95.10
48019;DHT22;33786;48.690;9.562;2023-08-01T12:46:47;23.40;94.70
48019;DHT22;33786;48.690;9.562;2023-08-01T12:49:14;23.60;94.30
48019;DHT22;33786;48.690;9.562;2023-08-01T12:51:41;23.60;94.10
48019;DHT22;33786;48.690;9.562;2023-08-01T12:54:08;23.60;93.60
48019;DHT22;33786;48.690;9.562;2023-08-01T12:56:35;23.50;93.20
48019;DHT22;33786;48.690;9.562;2023-08-01T12:59:02;23.30;93.40
48019;DHT22;33786;48.690;9.562;2023-08-01T13:01:28;23.10;94.00
48019;DHT22;33786;48.690;9.562;2023-08-01T13:03:55;23.50;94.10
48019;DHT22;33786;48.690;9.562;2023-08-01T13:06:22;24.10;95.40
48019;DHT22;33786;48.690;9.562;2023-08-01T13:08:49;24.40;94.20
48019;DHT22;33786;48.690;9.562;2023-08-01T13:11:16;24.30;92.70
48019;DHT22;33786;48.690;9.562;2023-08-01T13:13:43;24.60;92.50
48019;DHT22;33786;48.690;9.562;2023-08-01T13:16:10;24.60;92.00
48019;DHT22;33786;48.690;9.562;2023-08-01T13:18:37;24.50;91.60
48019;DHT22;33786;48.690;9.562;2023-08-01T13:21:10;24.40;92.50
48019;DHT22;33786;48.690;9.562;2023-08-01T13:23:38;24.10;92.00
48019;DHT22;33786;48.690;9.562;2023-08-01T13:26:05;24.10;92.40
48019;DHT22;33786;48.690;9.562;2023-08-01T13:28:31;24.30;92.40
48019;DHT22;33786;48.690;9.562;2023-08-01T13:30:58;24.20;90.60
48019;DHT22;33786;48.690;9.562;2023-08-01T13:33:25;24.20;91.30
48019;DHT22;33786;48.690;9.562;2023-08-01T13:35:52;24.20;91.60
48019;DHT22;33786;48.690;9.562;2023-08-01T13:38:20;24.60;91.10
48019;DHT22;33786;48.690;9.562;2023-08-01T13:40:47;24.60;91.70
48019;DHT22;33786;48.690;9.562;2023-08-01T13:43:14;24.70;90.50
48019;DHT22;33786;48.690;9.562;2023-08-01T13:45:41;24.60;90.60
48019;DHT22;33786;48.690;9.562;2023-08-01T13:48:08;24.80;91.40
48019;DHT22;33786;48.690;9.562;2023-08-01T13:50:35;24.60;89.00
48019;DHT22;33786;48.690;9.562;2023-08-01T13:53:02;24.60;88.40
48019;DHT22;33786;48.690;9.562;2023-08-01T13:55:29;24.80;87.60
48019;DHT22;33786;48.690;9.562;2023-08-01T13:57:55;24.80;87.90
48019;DHT22;33786;48.690;9.562;2023-08-01T14:00:22;24.70;87.60
48019;DHT22;33786;48.690;9.562;2023-08-01T14:02:49;25.10;89.10
48019;DHT22;33786;48.690;9.562;2023-08-01T14:05:17;25.30;89.40
48019;DHT22;33786;48.690;9.562;2023-08-01T14:07:44;25.50;90.10
48019;DHT22;33786;48.690;9.562;2023-08-01T14:10:10;25.70;87.70
48019;DHT22;33786;48.690;9.562;2023-08-01T14:12:37;25.40;87.60
48019;DHT22;33786;48.690;9.562;2023-08-01T14:15:04;25.30;88.80
48019;DHT22;33786;48.690;9.562;2023-08-01T14:17:31;25.00;87.70
48019;DHT22;33786;48.690;9.562;2023-08-01T14:19:58;24.60;88.90
48019;DHT22;33786;48.690;9.562;2023-08-01T14:22:25;24.60;88.70
48019;DHT22;33786;48.690;9.562;2023-08-01T14:24:52;24.60;89.20
48019;DHT22;33786;48.690;9.562;2023-08-01T14:27:19;24.60;88.00
48019;DHT22;33786;48.690;9.562;2023-08-01T14:29:46;24.80;88.50
48019;DHT22;33786;48.690;9.562;2023-08-01T14:32:12;24.50;87.80
48019;DHT22;33786;48.690;9.562;2023-08-01T14:34:39;24.50;88.60
48019;DHT22;33786;48.690;9.562;2023-08-01T14:37:06;24.50;88.40
48019;DHT22;33786;48.690;9.562;2023-08-01T14:39:33;24.60;89.60
48019;DHT22;33786;48.690;9.562;2023-08-01T14:42:00;24.70;88.80
48019;DHT22;33786;48.690;9.562;2023-08-01T14:44:31;24.70;87.40
48019;DHT22;33786;48.690;9.562;2023-08-01T14:46:58;24.70;87.70
48019;DHT22;33786;48.690;9.562;2023-08-01T14:49:24;24.80;87.20
48019;DHT22;33786;48.690;9.562;2023-08-01T14:51:54;25.00;86.40
48019;DHT22;33786;48.690;9.562;2023-08-01T14:54:21;24.70;86.60
48019;DHT22;33786;48.690;9.562;2023-08-01T14:57:05;24.60;87.30
48019;DHT22;33786;48.690;9.562;2023-08-01T14:59:32;24.50;87.10
48019;DHT22;33786;48.690;9.562;2023-08-01T15:01:58;24.60;87.90
48019;DHT22;33786;48.690;9.562;2023-08-01T15:04:25;24.70;85.70
48019;DHT22;33786;48.690;9.562;2023-08-01T15:06:53;24.40;86.70
48019;DHT22;33786;48.690;9.562;2023-08-01T15:09:21;24.40;86.50
48019;DHT22;33786;48.690;9.562;2023-08-01T15:11:47;24.70;84.10
48019;DHT22;33786;48.690;9.562;2023-08-01T15:14:14;24.20;84.90
48019;DHT22;33786;48.690;9.562;2023-08-01T15:16:41;24.40;86.20
48019;DHT22;33786;48.690;9.562;2023-08-01T15:19:08;24.50;85.00
48019;DHT22;33786;48.690;9.562;2023-08-01T15:21:35;24.90;84.90
48019;DHT22;33786;48.690;9.562;2023-08-01T15:24:02;24.50;85.10
48019;DHT22;33786;48.690;9.562;2023-08-01T15:26:29;24.70;84.10
48019;DHT22;33786;48.690;9.562;2023-08-01T15:28:56;24.60;85.10
48019;DHT22;33786;48.690;9.562;2023-08-01T15:31:31;24.70;84.50
48019;DHT22;33786;48.690;9.562;2023-08-01T15:33:58;24.40;84.20
48019;DHT22;33786;48.690;9.562;2023-08-01T15:36:28;24.30;84.90
48019;DHT22;33786;48.690;9.562;2023-08-01T15:38:55;24.10;85.90